Hauptseite
METAR-TAF:

METAR-TAF

Flughäfen :

Ouargla, Algerien

Breite: 31-55N, Länge: 005-24E, Höhe: 141 m

Beobachtung

Neuester Wetterbericht von vor 1 Stunde und 2 Minuten, um 16:00 UTC
Wind 6 kt aus Ost/Nordost
Temperatur 38°C
Luftfeuchtigkeit 19%
Luftdruck 1016 hPa
Sichtweite 10 km oder mehr
keine Wolken unter 1500 m und keine Kumulonimbus oder Gewitterwolken

METAR: DAUU 161600Z 06006KT CAVOK 38/10 Q1016

Zeit: 18:02 (17:02 UTC)

Prognose

Neuester Wetterbericht von vor 3 Stunden und 2 Minuten, um 14:00 UTC
Gültige Prognose vom 16 um 15 UTC bis 16 um 24 UTC
Wind 8 kt aus Ost/Nordost
Sichtweite 10 km oder mehr
keine Wolken unter 1500 m und keine Kumulonimbus oder Gewitterwolken

TAF: DAUU 161400Z 1615/1624 06008KT CAVOK

Wetterbeobachtungen und Prognosen von mehr als 4000 Flughäfen (METAR und TAF Bericht).

Die verfügbaren Stationen werden durch gelbe und rote Markierungen auf der Karte dargestellt.

Führen Sie die Maus auf sie, um den Namen der Station zu sehen.

Darauf klicken, um die Beobachtung von Wetterbeobachtungen und Prognosen zu sehen.

Um die Karte zu ändern : klicken Sie auf den grünen Tasten mit einem schwarzen Kreuz Zum Vergrößern, auf den grünen Button mit einem Gedankenstrich zu verkleinern, oder auf die grünen Pfeile für benachbarte Karten.


METAR-TAF: